sensor_id;sensor_type;location;lat;lon;timestamp;P1;durP1;ratioP1;P2;durP2;ratioP2
72198;SDS011;60103;51.014;16.992;2022-07-29T00:01:40;9.50;;;3.00;;
72198;SDS011;60103;51.014;16.992;2022-07-29T00:04:08;9.50;;;3.10;;
72198;SDS011;60103;51.014;16.992;2022-07-29T00:06:35;10.00;;;3.00;;
72198;SDS011;60103;51.014;16.992;2022-07-29T00:09:03;9.00;;;2.90;;
72198;SDS011;60103;51.014;16.992;2022-07-29T00:11:30;10.30;;;2.80;;
72198;SDS011;60103;51.014;16.992;2022-07-29T00:13:58;8.50;;;2.60;;
72198;SDS011;60103;51.014;16.992;2022-07-29T00:16:25;13.80;;;2.60;;
72198;SDS011;60103;51.014;16.992;2022-07-29T00:18:53;8.30;;;2.50;;
72198;SDS011;60103;51.014;16.992;2022-07-29T00:21:20;6.90;;;2.60;;
72198;SDS011;60103;51.014;16.992;2022-07-29T00:23:47;9.00;;;2.70;;
72198;SDS011;60103;51.014;16.992;2022-07-29T00:26:15;10.40;;;2.80;;
72198;SDS011;60103;51.014;16.992;2022-07-29T00:28:42;8.70;;;2.80;;
72198;SDS011;60103;51.014;16.992;2022-07-29T00:31:09;9.30;;;3.20;;
72198;SDS011;60103;51.014;16.992;2022-07-29T00:33:37;8.00;;;2.60;;
72198;SDS011;60103;51.014;16.992;2022-07-29T00:36:04;7.60;;;2.50;;
72198;SDS011;60103;51.014;16.992;2022-07-29T00:38:32;11.10;;;2.50;;
72198;SDS011;60103;51.014;16.992;2022-07-29T00:40:59;10.40;;;2.80;;
72198;SDS011;60103;51.014;16.992;2022-07-29T00:43:27;10.10;;;3.00;;
72198;SDS011;60103;51.014;16.992;2022-07-29T00:45:54;8.10;;;2.40;;
72198;SDS011;60103;51.014;16.992;2022-07-29T00:48:22;8.10;;;2.80;;
72198;SDS011;60103;51.014;16.992;2022-07-29T00:50:50;9.50;;;2.80;;
72198;SDS011;60103;51.014;16.992;2022-07-29T00:53:17;8.10;;;2.50;;
72198;SDS011;60103;51.014;16.992;2022-07-29T00:55:47;10.90;;;3.40;;
72198;SDS011;60103;51.014;16.992;2022-07-29T00:58:14;11.30;;;3.20;;
72198;SDS011;60103;51.014;16.992;2022-07-29T01:00:42;10.20;;;2.80;;
72198;SDS011;60103;51.014;16.992;2022-07-29T01:03:11;9.90;;;3.20;;
72198;SDS011;60103;51.014;16.992;2022-07-29T01:05:38;9.10;;;2.70;;
72198;SDS011;60103;51.014;16.992;2022-07-29T01:08:17;9.10;;;2.80;;
72198;SDS011;60103;51.014;16.992;2022-07-29T01:10:45;10.10;;;2.80;;
72198;SDS011;60103;51.014;16.992;2022-07-29T01:13:14;9.70;;;2.80;;
72198;SDS011;60103;51.014;16.992;2022-07-29T01:15:43;8.90;;;3.20;;
72198;SDS011;60103;51.014;16.992;2022-07-29T01:18:20;8.40;;;2.90;;
72198;SDS011;60103;51.014;16.992;2022-07-29T01:23:48;11.10;;;2.60;;
72198;SDS011;60103;51.014;16.992;2022-07-29T01:29:59;9.50;;;3.00;;
72198;SDS011;60103;51.014;16.992;2022-07-29T01:32:26;10.00;;;3.10;;
72198;SDS011;60103;51.014;16.992;2022-07-29T01:37:59;8.60;;;2.90;;
72198;SDS011;60103;51.014;16.992;2022-07-29T01:43:19;7.40;;;2.50;;
72198;SDS011;60103;51.014;16.992;2022-07-29T01:45:57;8.10;;;2.90;;
72198;SDS011;60103;51.014;16.992;2022-07-29T01:48:31;9.80;;;2.60;;
72198;SDS011;60103;51.014;16.992;2022-07-29T01:56:17;11.10;;;2.90;;
72198;SDS011;60103;51.014;16.992;2022-07-29T01:58:46;11.10;;;3.00;;
72198;SDS011;60103;51.014;16.992;2022-07-29T02:01:15;8.80;;;2.70;;
72198;SDS011;60103;51.014;16.992;2022-07-29T02:03:43;9.50;;;2.70;;
72198;SDS011;60103;51.014;16.992;2022-07-29T02:06:12;10.10;;;3.10;;
72198;SDS011;60103;51.014;16.992;2022-07-29T02:08:42;9.90;;;3.20;;
72198;SDS011;60103;51.014;16.992;2022-07-29T02:11:10;10.60;;;2.70;;
72198;SDS011;60103;51.014;16.992;2022-07-29T02:13:38;10.00;;;3.00;;
72198;SDS011;60103;51.014;16.992;2022-07-29T02:16:07;10.20;;;3.30;;
72198;SDS011;60103;51.014;16.992;2022-07-29T02:18:36;8.70;;;2.90;;
72198;SDS011;60103;51.014;16.992;2022-07-29T02:21:05;11.30;;;3.40;;
72198;SDS011;60103;51.014;16.992;2022-07-29T02:23:40;10.40;;;2.90;;
72198;SDS011;60103;51.014;16.992;2022-07-29T02:26:17;11.60;;;3.40;;
72198;SDS011;60103;51.014;16.992;2022-07-29T02:28:48;11.50;;;3.40;;
72198;SDS011;60103;51.014;16.992;2022-07-29T02:31:17;9.00;;;3.20;;
72198;SDS011;60103;51.014;16.992;2022-07-29T02:33:46;8.40;;;3.30;;
72198;SDS011;60103;51.014;16.992;2022-07-29T02:36:16;9.30;;;3.60;;
72198;SDS011;60103;51.014;16.992;2022-07-29T02:38:44;10.40;;;3.10;;
72198;SDS011;60103;51.014;16.992;2022-07-29T02:41:23;9.30;;;3.10;;
72198;SDS011;60103;51.014;16.992;2022-07-29T02:43:57;8.60;;;2.90;;
72198;SDS011;60103;51.014;16.992;2022-07-29T02:46:30;8.30;;;2.50;;
72198;SDS011;60103;51.014;16.992;2022-07-29T02:49:02;10.90;;;2.90;;
72198;SDS011;60103;51.014;16.992;2022-07-29T02:54:55;9.50;;;2.90;;
72198;SDS011;60103;51.014;16.992;2022-07-29T02:57:28;10.30;;;3.10;;
72198;SDS011;60103;51.014;16.992;2022-07-29T02:59:58;9.60;;;3.00;;
72198;SDS011;60103;51.014;16.992;2022-07-29T03:02:27;10.90;;;3.00;;
72198;SDS011;60103;51.014;16.992;2022-07-29T03:04:57;9.30;;;3.00;;
72198;SDS011;60103;51.014;16.992;2022-07-29T03:07:26;9.90;;;3.10;;
72198;SDS011;60103;51.014;16.992;2022-07-29T03:09:53;10.40;;;3.10;;
72198;SDS011;60103;51.014;16.992;2022-07-29T03:12:21;13.80;;;3.40;;
72198;SDS011;60103;51.014;16.992;2022-07-29T03:14:50;11.50;;;3.40;;
72198;SDS011;60103;51.014;16.992;2022-07-29T03:17:17;10.10;;;3.10;;
72198;SDS011;60103;51.014;16.992;2022-07-29T03:19:45;10.50;;;3.50;;
72198;SDS011;60103;51.014;16.992;2022-07-29T03:22:13;8.70;;;3.30;;
72198;SDS011;60103;51.014;16.992;2022-07-29T03:24:45;10.20;;;3.20;;
72198;SDS011;60103;51.014;16.992;2022-07-29T03:27:13;10.80;;;3.60;;
72198;SDS011;60103;51.014;16.992;2022-07-29T03:29:40;9.10;;;3.20;;
72198;SDS011;60103;51.014;16.992;2022-07-29T03:32:16;9.20;;;3.00;;
72198;SDS011;60103;51.014;16.992;2022-07-29T03:34:50;10.20;;;3.30;;
72198;SDS011;60103;51.014;16.992;2022-07-29T03:37:17;12.40;;;3.30;;
72198;SDS011;60103;51.014;16.992;2022-07-29T03:39:45;11.10;;;3.10;;
72198;SDS011;60103;51.014;16.992;2022-07-29T03:42:13;10.40;;;3.00;;
72198;SDS011;60103;51.014;16.992;2022-07-29T03:44:42;8.60;;;3.00;;
72198;SDS011;60103;51.014;16.992;2022-07-29T03:47:13;9.50;;;3.30;;
72198;SDS011;60103;51.014;16.992;2022-07-29T03:49:41;9.30;;;2.80;;
72198;SDS011;60103;51.014;16.992;2022-07-29T03:52:09;10.70;;;2.70;;
72198;SDS011;60103;51.014;16.992;2022-07-29T03:54:36;9.10;;;3.30;;
72198;SDS011;60103;51.014;16.992;2022-07-29T03:57:04;9.00;;;2.90;;
72198;SDS011;60103;51.014;16.992;2022-07-29T03:59:33;10.00;;;2.80;;
72198;SDS011;60103;51.014;16.992;2022-07-29T04:02:01;8.00;;;2.80;;
72198;SDS011;60103;51.014;16.992;2022-07-29T04:04:31;8.90;;;2.90;;
72198;SDS011;60103;51.014;16.992;2022-07-29T04:07:00;8.00;;;2.50;;
72198;SDS011;60103;51.014;16.992;2022-07-29T04:09:27;8.20;;;2.80;;
72198;SDS011;60103;51.014;16.992;2022-07-29T04:11:55;9.10;;;2.70;;
72198;SDS011;60103;51.014;16.992;2022-07-29T04:14:30;10.10;;;2.60;;
72198;SDS011;60103;51.014;16.992;2022-07-29T04:17:01;8.40;;;2.60;;
72198;SDS011;60103;51.014;16.992;2022-07-29T04:19:30;8.80;;;3.00;;
72198;SDS011;60103;51.014;16.992;2022-07-29T04:21:58;8.80;;;3.00;;
72198;SDS011;60103;51.014;16.992;2022-07-29T04:24:26;10.70;;;3.80;;
72198;SDS011;60103;51.014;16.992;2022-07-29T04:26:54;9.00;;;2.70;;
72198;SDS011;60103;51.014;16.992;2022-07-29T04:29:21;11.40;;;2.70;;
72198;SDS011;60103;51.014;16.992;2022-07-29T04:31:49;10.00;;;2.60;;
72198;SDS011;60103;51.014;16.992;2022-07-29T04:34:16;9.30;;;2.30;;
72198;SDS011;60103;51.014;16.992;2022-07-29T04:36:45;8.70;;;2.80;;
72198;SDS011;60103;51.014;16.992;2022-07-29T04:39:12;8.60;;;2.70;;
72198;SDS011;60103;51.014;16.992;2022-07-29T04:41:46;10.10;;;2.60;;
72198;SDS011;60103;51.014;16.992;2022-07-29T04:44:14;7.90;;;2.90;;
72198;SDS011;60103;51.014;16.992;2022-07-29T04:46:42;8.90;;;2.80;;
72198;SDS011;60103;51.014;16.992;2022-07-29T04:49:11;9.50;;;2.80;;
72198;SDS011;60103;51.014;16.992;2022-07-29T04:51:38;9.00;;;2.70;;
72198;SDS011;60103;51.014;16.992;2022-07-29T04:54:06;7.70;;;2.90;;
72198;SDS011;60103;51.014;16.992;2022-07-29T04:56:34;9.80;;;2.60;;
72198;SDS011;60103;51.014;16.992;2022-07-29T04:59:01;8.00;;;1.80;;
72198;SDS011;60103;51.014;16.992;2022-07-29T05:01:28;8.00;;;2.40;;
72198;SDS011;60103;51.014;16.992;2022-07-29T05:03:56;9.00;;;2.30;;
72198;SDS011;60103;51.014;16.992;2022-07-29T05:06:26;9.30;;;2.50;;
72198;SDS011;60103;51.014;16.992;2022-07-29T05:08:53;8.00;;;2.20;;
72198;SDS011;60103;51.014;16.992;2022-07-29T05:11:20;9.80;;;2.40;;
72198;SDS011;60103;51.014;16.992;2022-07-29T05:13:55;8.30;;;2.20;;
72198;SDS011;60103;51.014;16.992;2022-07-29T05:16:22;7.40;;;2.40;;
72198;SDS011;60103;51.014;16.992;2022-07-29T05:18:50;7.40;;;2.10;;
72198;SDS011;60103;51.014;16.992;2022-07-29T05:21:17;9.20;;;2.70;;
72198;SDS011;60103;51.014;16.992;2022-07-29T05:23:45;9.40;;;2.60;;
72198;SDS011;60103;51.014;16.992;2022-07-29T05:26:12;8.60;;;2.00;;
72198;SDS011;60103;51.014;16.992;2022-07-29T05:28:39;12.30;;;2.30;;
72198;SDS011;60103;51.014;16.992;2022-07-29T05:31:07;10.20;;;2.10;;
72198;SDS011;60103;51.014;16.992;2022-07-29T05:33:35;7.60;;;2.30;;
72198;SDS011;60103;51.014;16.992;2022-07-29T05:36:06;9.60;;;2.30;;
72198;SDS011;60103;51.014;16.992;2022-07-29T05:38:34;8.20;;;2.80;;
72198;SDS011;60103;51.014;16.992;2022-07-29T05:41:03;9.60;;;2.60;;
72198;SDS011;60103;51.014;16.992;2022-07-29T05:43:31;7.80;;;2.00;;
72198;SDS011;60103;51.014;16.992;2022-07-29T05:45:58;8.50;;;2.40;;
72198;SDS011;60103;51.014;16.992;2022-07-29T05:48:26;8.80;;;2.30;;
72198;SDS011;60103;51.014;16.992;2022-07-29T05:50:55;9.00;;;2.50;;
72198;SDS011;60103;51.014;16.992;2022-07-29T05:53:22;10.50;;;2.30;;
72198;SDS011;60103;51.014;16.992;2022-07-29T05:55:50;8.00;;;2.10;;
72198;SDS011;60103;51.014;16.992;2022-07-29T05:58:19;8.90;;;2.20;;
72198;SDS011;60103;51.014;16.992;2022-07-29T06:00:46;9.20;;;2.20;;
72198;SDS011;60103;51.014;16.992;2022-07-29T06:03:13;8.90;;;2.30;;
72198;SDS011;60103;51.014;16.992;2022-07-29T06:05:41;6.50;;;2.10;;
72198;SDS011;60103;51.014;16.992;2022-07-29T06:08:08;7.60;;;1.90;;
72198;SDS011;60103;51.014;16.992;2022-07-29T06:10:36;9.00;;;1.80;;
72198;SDS011;60103;51.014;16.992;2022-07-29T06:13:03;6.80;;;1.70;;
72198;SDS011;60103;51.014;16.992;2022-07-29T06:15:30;7.10;;;1.80;;
72198;SDS011;60103;51.014;16.992;2022-07-29T06:17:58;8.50;;;1.90;;
72198;SDS011;60103;51.014;16.992;2022-07-29T06:20:30;9.80;;;2.10;;
72198;SDS011;60103;51.014;16.992;2022-07-29T06:22:58;7.60;;;1.90;;
72198;SDS011;60103;51.014;16.992;2022-07-29T06:25:26;7.30;;;2.10;;
72198;SDS011;60103;51.014;16.992;2022-07-29T06:27:57;11.10;;;3.10;;
72198;SDS011;60103;51.014;16.992;2022-07-29T06:30:24;9.20;;;2.00;;
72198;SDS011;60103;51.014;16.992;2022-07-29T06:32:52;6.20;;;1.70;;
72198;SDS011;60103;51.014;16.992;2022-07-29T06:35:20;10.70;;;2.10;;
72198;SDS011;60103;51.014;16.992;2022-07-29T06:38:07;6.00;;;1.90;;
72198;SDS011;60103;51.014;16.992;2022-07-29T06:40:55;8.60;;;1.30;;
72198;SDS011;60103;51.014;16.992;2022-07-29T06:43:30;7.90;;;2.00;;
72198;SDS011;60103;51.014;16.992;2022-07-29T06:46:01;5.40;;;1.40;;
72198;SDS011;60103;51.014;16.992;2022-07-29T06:48:31;5.30;;;1.40;;
72198;SDS011;60103;51.014;16.992;2022-07-29T06:50:59;6.30;;;2.00;;
72198;SDS011;60103;51.014;16.992;2022-07-29T06:53:27;8.30;;;1.90;;
72198;SDS011;60103;51.014;16.992;2022-07-29T06:55:55;7.70;;;2.00;;
72198;SDS011;60103;51.014;16.992;2022-07-29T06:58:25;7.70;;;2.00;;
72198;SDS011;60103;51.014;16.992;2022-07-29T07:00:56;5.70;;;1.60;;
72198;SDS011;60103;51.014;16.992;2022-07-29T07:03:24;8.70;;;1.70;;
72198;SDS011;60103;51.014;16.992;2022-07-29T07:05:52;8.30;;;1.80;;
72198;SDS011;60103;51.014;16.992;2022-07-29T07:08:21;9.30;;;1.80;;
72198;SDS011;60103;51.014;16.992;2022-07-29T07:10:49;6.70;;;2.00;;
72198;SDS011;60103;51.014;16.992;2022-07-29T07:13:18;7.20;;;1.90;;
72198;SDS011;60103;51.014;16.992;2022-07-29T07:15:45;7.40;;;1.60;;
72198;SDS011;60103;51.014;16.992;2022-07-29T07:18:15;5.70;;;1.50;;
72198;SDS011;60103;51.014;16.992;2022-07-29T07:20:44;6.20;;;1.50;;
72198;SDS011;60103;51.014;16.992;2022-07-29T07:23:12;6.20;;;1.70;;
72198;SDS011;60103;51.014;16.992;2022-07-29T07:25:40;9.10;;;1.70;;
72198;SDS011;60103;51.014;16.992;2022-07-29T07:28:08;6.10;;;1.30;;
72198;SDS011;60103;51.014;16.992;2022-07-29T07:30:37;6.40;;;1.80;;
72198;SDS011;60103;51.014;16.992;2022-07-29T07:33:04;5.50;;;1.50;;
72198;SDS011;60103;51.014;16.992;2022-07-29T07:35:32;6.60;;;2.20;;
72198;SDS011;60103;51.014;16.992;2022-07-29T07:38:00;7.10;;;1.80;;
72198;SDS011;60103;51.014;16.992;2022-07-29T07:40:28;8.40;;;1.70;;
72198;SDS011;60103;51.014;16.992;2022-07-29T07:42:55;6.30;;;1.70;;
72198;SDS011;60103;51.014;16.992;2022-07-29T07:45:23;8.90;;;1.70;;
72198;SDS011;60103;51.014;16.992;2022-07-29T07:47:53;6.40;;;1.70;;
72198;SDS011;60103;51.014;16.992;2022-07-29T07:50:20;6.40;;;1.80;;
72198;SDS011;60103;51.014;16.992;2022-07-29T07:52:53;6.70;;;1.90;;
72198;SDS011;60103;51.014;16.992;2022-07-29T07:55:21;7.50;;;1.60;;
72198;SDS011;60103;51.014;16.992;2022-07-29T07:57:49;5.60;;;1.70;;
72198;SDS011;60103;51.014;16.992;2022-07-29T08:00:17;6.30;;;1.80;;
72198;SDS011;60103;51.014;16.992;2022-07-29T08:02:48;9.30;;;1.50;;
72198;SDS011;60103;51.014;16.992;2022-07-29T08:05:17;7.70;;;1.50;;
72198;SDS011;60103;51.014;16.992;2022-07-29T08:07:45;5.50;;;1.60;;
72198;SDS011;60103;51.014;16.992;2022-07-29T08:10:14;7.10;;;2.10;;
72198;SDS011;60103;51.014;16.992;2022-07-29T08:13:03;6.60;;;1.80;;
72198;SDS011;60103;51.014;16.992;2022-07-29T08:15:32;5.90;;;1.60;;
72198;SDS011;60103;51.014;16.992;2022-07-29T08:17:59;8.40;;;2.10;;
72198;SDS011;60103;51.014;16.992;2022-07-29T08:20:34;5.10;;;1.60;;
72198;SDS011;60103;51.014;16.992;2022-07-29T08:23:02;5.80;;;1.70;;
72198;SDS011;60103;51.014;16.992;2022-07-29T08:25:31;7.00;;;2.00;;
72198;SDS011;60103;51.014;16.992;2022-07-29T08:28:05;6.60;;;1.80;;
72198;SDS011;60103;51.014;16.992;2022-07-29T08:30:33;6.80;;;1.70;;
72198;SDS011;60103;51.014;16.992;2022-07-29T08:33:01;7.60;;;1.60;;
72198;SDS011;60103;51.014;16.992;2022-07-29T08:35:29;6.10;;;1.70;;
72198;SDS011;60103;51.014;16.992;2022-07-29T08:38:02;7.60;;;1.90;;
72198;SDS011;60103;51.014;16.992;2022-07-29T08:40:30;6.10;;;2.00;;
72198;SDS011;60103;51.014;16.992;2022-07-29T08:42:59;7.00;;;1.70;;
72198;SDS011;60103;51.014;16.992;2022-07-29T08:45:37;7.30;;;2.20;;
72198;SDS011;60103;51.014;16.992;2022-07-29T08:48:14;6.90;;;1.50;;
72198;SDS011;60103;51.014;16.992;2022-07-29T08:50:43;8.10;;;1.80;;
72198;SDS011;60103;51.014;16.992;2022-07-29T08:53:13;6.60;;;1.90;;
72198;SDS011;60103;51.014;16.992;2022-07-29T08:55:43;8.50;;;2.30;;
72198;SDS011;60103;51.014;16.992;2022-07-29T08:58:12;5.30;;;1.60;;
72198;SDS011;60103;51.014;16.992;2022-07-29T09:00:45;6.00;;;1.80;;
72198;SDS011;60103;51.014;16.992;2022-07-29T09:03:15;7.30;;;1.80;;
72198;SDS011;60103;51.014;16.992;2022-07-29T09:05:47;6.80;;;1.80;;
72198;SDS011;60103;51.014;16.992;2022-07-29T09:08:15;6.90;;;2.00;;
72198;SDS011;60103;51.014;16.992;2022-07-29T09:10:44;6.70;;;1.90;;
72198;SDS011;60103;51.014;16.992;2022-07-29T09:13:11;6.10;;;1.80;;
72198;SDS011;60103;51.014;16.992;2022-07-29T09:15:39;7.10;;;2.00;;
72198;SDS011;60103;51.014;16.992;2022-07-29T09:18:06;6.20;;;1.90;;
72198;SDS011;60103;51.014;16.992;2022-07-29T09:20:54;6.00;;;1.90;;
72198;SDS011;60103;51.014;16.992;2022-07-29T09:24:07;6.70;;;1.90;;
72198;SDS011;60103;51.014;16.992;2022-07-29T09:26:36;6.90;;;1.70;;
72198;SDS011;60103;51.014;16.992;2022-07-29T09:29:12;6.70;;;2.10;;
72198;SDS011;60103;51.014;16.992;2022-07-29T09:31:45;6.80;;;1.80;;
72198;SDS011;60103;51.014;16.992;2022-07-29T09:34:20;7.00;;;2.10;;
72198;SDS011;60103;51.014;16.992;2022-07-29T09:36:52;6.30;;;1.50;;
72198;SDS011;60103;51.014;16.992;2022-07-29T09:39:29;7.90;;;2.10;;
72198;SDS011;60103;51.014;16.992;2022-07-29T09:41:59;9.90;;;2.30;;
72198;SDS011;60103;51.014;16.992;2022-07-29T09:44:40;6.50;;;2.10;;
72198;SDS011;60103;51.014;16.992;2022-07-29T09:47:12;6.00;;;1.90;;
72198;SDS011;60103;51.014;16.992;2022-07-29T09:49:56;7.80;;;1.90;;
72198;SDS011;60103;51.014;16.992;2022-07-29T09:52:26;7.10;;;2.20;;
72198;SDS011;60103;51.014;16.992;2022-07-29T09:55:04;9.20;;;2.20;;
72198;SDS011;60103;51.014;16.992;2022-07-29T09:57:39;7.20;;;1.70;;
72198;SDS011;60103;51.014;16.992;2022-07-29T10:00:14;8.20;;;2.50;;
72198;SDS011;60103;51.014;16.992;2022-07-29T10:02:43;5.90;;;1.80;;
72198;SDS011;60103;51.014;16.992;2022-07-29T10:05:25;10.30;;;2.10;;
72198;SDS011;60103;51.014;16.992;2022-07-29T10:08:02;8.80;;;2.20;;
72198;SDS011;60103;51.014;16.992;2022-07-29T10:10:32;8.00;;;2.20;;
72198;SDS011;60103;51.014;16.992;2022-07-29T10:13:02;6.60;;;2.00;;
72198;SDS011;60103;51.014;16.992;2022-07-29T10:15:41;7.20;;;2.00;;
72198;SDS011;60103;51.014;16.992;2022-07-29T10:18:12;7.40;;;2.10;;
72198;SDS011;60103;51.014;16.992;2022-07-29T10:20:41;8.00;;;2.10;;
72198;SDS011;60103;51.014;16.992;2022-07-29T10:23:09;6.50;;;2.00;;
72198;SDS011;60103;51.014;16.992;2022-07-29T10:25:36;5.70;;;2.00;;
72198;SDS011;60103;51.014;16.992;2022-07-29T10:28:11;8.50;;;2.00;;
72198;SDS011;60103;51.014;16.992;2022-07-29T10:30:42;7.50;;;2.10;;
72198;SDS011;60103;51.014;16.992;2022-07-29T10:36:32;7.00;;;2.40;;
72198;SDS011;60103;51.014;16.992;2022-07-29T10:42:18;8.00;;;2.30;;
72198;SDS011;60103;51.014;16.992;2022-07-29T10:44:59;6.40;;;2.30;;
72198;SDS011;60103;51.014;16.992;2022-07-29T10:47:29;7.10;;;2.30;;
72198;SDS011;60103;51.014;16.992;2022-07-29T10:50:02;5.80;;;2.20;;
72198;SDS011;60103;51.014;16.992;2022-07-29T10:55:39;7.30;;;2.30;;
72198;SDS011;60103;51.014;16.992;2022-07-29T10:58:19;8.10;;;2.50;;
72198;SDS011;60103;51.014;16.992;2022-07-29T11:00:50;7.80;;;2.60;;
72198;SDS011;60103;51.014;16.992;2022-07-29T11:06:19;8.40;;;2.40;;
72198;SDS011;60103;51.014;16.992;2022-07-29T11:12:01;6.80;;;2.00;;
72198;SDS011;60103;51.014;16.992;2022-07-29T11:17:25;7.20;;;2.30;;
72198;SDS011;60103;51.014;16.992;2022-07-29T11:31:20;6.20;;;2.10;;
72198;SDS011;60103;51.014;16.992;2022-07-29T11:45:05;8.00;;;2.20;;
72198;SDS011;60103;51.014;16.992;2022-07-29T11:47:58;8.00;;;2.40;;
72198;SDS011;60103;51.014;16.992;2022-07-29T11:50:47;6.80;;;2.00;;
72198;SDS011;60103;51.014;16.992;2022-07-29T11:53:14;6.00;;;2.40;;
72198;SDS011;60103;51.014;16.992;2022-07-29T11:55:42;7.50;;;2.50;;
72198;SDS011;60103;51.014;16.992;2022-07-29T11:58:20;8.60;;;2.30;;
72198;SDS011;60103;51.014;16.992;2022-07-29T12:00:50;6.20;;;2.20;;
72198;SDS011;60103;51.014;16.992;2022-07-29T12:03:38;7.90;;;2.10;;
72198;SDS011;60103;51.014;16.992;2022-07-29T12:06:14;6.10;;;1.80;;
72198;SDS011;60103;51.014;16.992;2022-07-29T12:08:46;6.80;;;2.30;;
72198;SDS011;60103;51.014;16.992;2022-07-29T12:11:18;7.50;;;2.20;;
72198;SDS011;60103;51.014;16.992;2022-07-29T12:13:48;7.20;;;2.20;;
72198;SDS011;60103;51.014;16.992;2022-07-29T12:16:17;6.20;;;1.80;;
72198;SDS011;60103;51.014;16.992;2022-07-29T12:21:25;6.70;;;2.30;;
72198;SDS011;60103;51.014;16.992;2022-07-29T12:23:55;5.70;;;2.10;;
72198;SDS011;60103;51.014;16.992;2022-07-29T12:26:34;6.10;;;1.90;;
72198;SDS011;60103;51.014;16.992;2022-07-29T12:29:02;7.30;;;2.20;;
72198;SDS011;60103;51.014;16.992;2022-07-29T12:31:39;7.50;;;2.00;;
72198;SDS011;60103;51.014;16.992;2022-07-29T12:34:13;7.70;;;2.10;;
72198;SDS011;60103;51.014;16.992;2022-07-29T12:36:42;7.00;;;2.30;;
72198;SDS011;60103;51.014;16.992;2022-07-29T12:39:10;8.20;;;2.20;;
72198;SDS011;60103;51.014;16.992;2022-07-29T12:41:38;7.90;;;2.00;;
72198;SDS011;60103;51.014;16.992;2022-07-29T12:44:06;6.00;;;1.90;;
72198;SDS011;60103;51.014;16.992;2022-07-29T12:46:34;6.40;;;2.30;;
72198;SDS011;60103;51.014;16.992;2022-07-29T12:49:01;7.40;;;2.10;;
72198;SDS011;60103;51.014;16.992;2022-07-29T12:51:34;7.30;;;2.10;;
72198;SDS011;60103;51.014;16.992;2022-07-29T12:54:09;6.30;;;2.20;;
72198;SDS011;60103;51.014;16.992;2022-07-29T12:56:38;7.10;;;2.40;;
72198;SDS011;60103;51.014;16.992;2022-07-29T12:59:13;7.00;;;2.60;;
72198;SDS011;60103;51.014;16.992;2022-07-29T13:01:46;6.20;;;1.90;;
72198;SDS011;60103;51.014;16.992;2022-07-29T13:04:29;6.70;;;2.20;;
72198;SDS011;60103;51.014;16.992;2022-07-29T13:07:04;6.50;;;1.90;;
72198;SDS011;60103;51.014;16.992;2022-07-29T13:09:43;7.50;;;1.90;;
72198;SDS011;60103;51.014;16.992;2022-07-29T13:12:14;8.00;;;2.40;;
72198;SDS011;60103;51.014;16.992;2022-07-29T13:14:42;7.80;;;2.30;;
72198;SDS011;60103;51.014;16.992;2022-07-29T13:17:15;7.50;;;2.30;;
72198;SDS011;60103;51.014;16.992;2022-07-29T13:22:14;6.90;;;2.00;;
72198;SDS011;60103;51.014;16.992;2022-07-29T13:27:22;6.50;;;2.40;;
72198;SDS011;60103;51.014;16.992;2022-07-29T13:29:52;7.20;;;2.30;;
72198;SDS011;60103;51.014;16.992;2022-07-29T13:32:23;6.60;;;2.30;;
72198;SDS011;60103;51.014;16.992;2022-07-29T13:34:54;10.00;;;2.40;;
72198;SDS011;60103;51.014;16.992;2022-07-29T13:37:27;8.30;;;2.40;;
72198;SDS011;60103;51.014;16.992;2022-07-29T13:39:56;10.30;;;2.30;;
72198;SDS011;60103;51.014;16.992;2022-07-29T13:42:24;7.50;;;2.30;;
72198;SDS011;60103;51.014;16.992;2022-07-29T13:44:51;8.60;;;2.10;;
72198;SDS011;60103;51.014;16.992;2022-07-29T13:47:19;7.40;;;2.20;;
72198;SDS011;60103;51.014;16.992;2022-07-29T13:49:47;6.70;;;2.70;;
72198;SDS011;60103;51.014;16.992;2022-07-29T13:52:15;7.30;;;2.30;;
72198;SDS011;60103;51.014;16.992;2022-07-29T13:54:43;6.40;;;2.50;;
72198;SDS011;60103;51.014;16.992;2022-07-29T13:57:11;8.10;;;2.20;;
72198;SDS011;60103;51.014;16.992;2022-07-29T13:59:39;8.60;;;2.50;;
72198;SDS011;60103;51.014;16.992;2022-07-29T14:02:07;9.10;;;2.50;;
72198;SDS011;60103;51.014;16.992;2022-07-29T14:04:35;6.90;;;2.00;;
72198;SDS011;60103;51.014;16.992;2022-07-29T14:07:06;7.60;;;2.00;;
72198;SDS011;60103;51.014;16.992;2022-07-29T14:09:34;6.70;;;2.30;;
72198;SDS011;60103;51.014;16.992;2022-07-29T14:12:07;9.20;;;2.30;;
72198;SDS011;60103;51.014;16.992;2022-07-29T14:14:35;6.70;;;2.20;;
72198;SDS011;60103;51.014;16.992;2022-07-29T14:17:03;6.50;;;2.00;;
72198;SDS011;60103;51.014;16.992;2022-07-29T14:19:33;6.50;;;2.10;;
72198;SDS011;60103;51.014;16.992;2022-07-29T14:22:06;8.90;;;2.40;;
72198;SDS011;60103;51.014;16.992;2022-07-29T14:24:36;9.50;;;2.60;;
72198;SDS011;60103;51.014;16.992;2022-07-29T14:27:04;8.00;;;2.30;;
72198;SDS011;60103;51.014;16.992;2022-07-29T14:29:32;7.60;;;2.40;;
72198;SDS011;60103;51.014;16.992;2022-07-29T14:32:04;6.10;;;1.90;;
72198;SDS011;60103;51.014;16.992;2022-07-29T14:34:34;9.00;;;2.30;;
72198;SDS011;60103;51.014;16.992;2022-07-29T14:37:05;7.50;;;1.90;;
72198;SDS011;60103;51.014;16.992;2022-07-29T14:39:34;8.20;;;2.50;;
72198;SDS011;60103;51.014;16.992;2022-07-29T14:42:09;8.40;;;2.30;;
72198;SDS011;60103;51.014;16.992;2022-07-29T14:44:39;7.90;;;2.50;;
72198;SDS011;60103;51.014;16.992;2022-07-29T14:47:07;9.60;;;2.30;;
72198;SDS011;60103;51.014;16.992;2022-07-29T14:49:35;9.00;;;2.50;;
72198;SDS011;60103;51.014;16.992;2022-07-29T14:52:03;7.00;;;2.00;;
72198;SDS011;60103;51.014;16.992;2022-07-29T14:54:31;6.80;;;1.90;;
72198;SDS011;60103;51.014;16.992;2022-07-29T14:56:59;6.50;;;2.30;;
72198;SDS011;60103;51.014;16.992;2022-07-29T14:59:26;6.90;;;2.30;;
72198;SDS011;60103;51.014;16.992;2022-07-29T15:01:55;7.70;;;2.30;;
72198;SDS011;60103;51.014;16.992;2022-07-29T15:04:23;7.90;;;2.40;;
72198;SDS011;60103;51.014;16.992;2022-07-29T15:06:50;9.60;;;2.80;;
72198;SDS011;60103;51.014;16.992;2022-07-29T15:09:18;6.20;;;2.40;;
72198;SDS011;60103;51.014;16.992;2022-07-29T15:11:49;8.00;;;2.70;;
72198;SDS011;60103;51.014;16.992;2022-07-29T15:14:17;8.90;;;2.10;;
72198;SDS011;60103;51.014;16.992;2022-07-29T15:16:44;7.30;;;2.80;;
72198;SDS011;60103;51.014;16.992;2022-07-29T15:19:13;6.90;;;2.70;;
72198;SDS011;60103;51.014;16.992;2022-07-29T15:21:41;7.90;;;2.50;;
72198;SDS011;60103;51.014;16.992;2022-07-29T15:24:17;8.00;;;2.80;;
72198;SDS011;60103;51.014;16.992;2022-07-29T15:26:44;8.70;;;2.70;;
72198;SDS011;60103;51.014;16.992;2022-07-29T15:29:14;7.50;;;2.50;;
72198;SDS011;60103;51.014;16.992;2022-07-29T15:31:42;8.40;;;2.30;;
72198;SDS011;60103;51.014;16.992;2022-07-29T15:34:10;10.20;;;3.00;;
72198;SDS011;60103;51.014;16.992;2022-07-29T15:36:38;12.00;;;2.70;;
72198;SDS011;60103;51.014;16.992;2022-07-29T15:39:21;7.50;;;2.60;;
72198;SDS011;60103;51.014;16.992;2022-07-29T15:41:49;7.60;;;2.60;;
72198;SDS011;60103;51.014;16.992;2022-07-29T15:44:18;7.20;;;2.60;;
72198;SDS011;60103;51.014;16.992;2022-07-29T15:46:46;7.60;;;2.50;;
72198;SDS011;60103;51.014;16.992;2022-07-29T15:49:30;8.80;;;2.90;;
72198;SDS011;60103;51.014;16.992;2022-07-29T15:52:18;7.30;;;2.70;;
72198;SDS011;60103;51.014;16.992;2022-07-29T15:54:55;8.90;;;3.10;;
72198;SDS011;60103;51.014;16.992;2022-07-29T15:57:24;10.40;;;3.10;;
72198;SDS011;60103;51.014;16.992;2022-07-29T15:59:51;9.10;;;3.00;;
72198;SDS011;60103;51.014;16.992;2022-07-29T16:02:19;8.50;;;2.70;;